航空気象通報

ウインドサーファーのための航空気象通報による風予報です。

4/3-4の航空気象通報(国内、海外)

2008年04月03日 23時17分51秒 | TAF
羽田空港
TAF RJTT 030844Z 031812 35008KT 9999 FEW030
BECMG 0306 18014KT
BECMG 0912 32012KT
日本時間4日03-12時:350度から8ノットの風
12-15時:風が変化
15-18時:180度から14ノット
18-21時:風が変化
21時:320度から12ノットの風


那覇空港
TAF ROAH 030840Z 031812 07006KT 9999 FEW020 BKN045
BECMG 0912 10008KT
日本時間4日03-18時:070度から6ノットの風
18-21時:風が変化
21時:100度から8ノットの風


マウイのカフルイ空港
PHOG 031122Z 031212 01010KT P6SM SCT020 SCT050
FM1500 03012KT P6SM SCT025 BKN040
TEMPO 1519 -SHRA BKN025
FM1900 03015KT P6SM VCSH SCT025 BKN040
FM0600 01010KT P6SM SCT025 SCT040
AMD NOT SKED
ハワイ時間3日02-05時:010度から10ノットの風
05-09時:030度から12ノットの風
09-20時:030度から15ノットの風
20時-4日02時:010度から10ノットの風
、但し、05-09時:一時、

サイパン空港
PGSN 031122Z 031212 07011G17KT P6SM VCSH FEW025
マリアナ時間3日22時-4日22時:070度から11ノット、突風17ノット

コメント